Terminal Aerodrome Forecast
Issued by NWS

Home | Current Version | Previous Version | Text Only | Print | Product List | Glossary On
Versions: 1 2 3 4 5 6 7 8 9 10 11 12 13 14 15 16 17 18 19 20 21
000
FTUS41 KGYX 261720
TAFLEB
TAF
KLEB 261720Z 2618/2718 31005KT P6SM SKC
     FM270700 00000KT 1/4SM FG OVC001
     FM271400 36002KT P6SM FEW250=

USA.gov is the U.S. government's official web portal to all federal, state and local government web resources and services.